createdAt,value
2022-12-31T00:04:32.075Z,99925.03
2022-12-31T00:09:34.741Z,99904.99
2022-12-31T00:14:37.439Z,99889.29
2022-12-31T00:19:40.144Z,99886.11
2022-12-31T00:24:42.858Z,99873.55
2022-12-31T00:29:45.565Z,99879.70
2022-12-31T00:34:48.286Z,99881.51
2022-12-31T00:39:51.063Z,99872.75
2022-12-31T00:44:53.753Z,99858.61
2022-12-31T00:49:56.459Z,99835.68
2022-12-31T00:54:59.266Z,99824.52
2022-12-31T01:00:01.905Z,99830.52
2022-12-31T01:05:05.721Z,99818.42
2022-12-31T01:10:09.167Z,99832.39
2022-12-31T01:15:11.808Z,99827.32
2022-12-31T01:20:14.549Z,99811.90
2022-12-31T01:25:17.297Z,99811.84
2022-12-31T01:30:20.200Z,99801.77
2022-12-31T01:35:24.006Z,99806.52
2022-12-31T01:40:26.686Z,99803.02
2022-12-31T01:45:29.630Z,99779.19
2022-12-31T01:50:35.888Z,99774.08
2022-12-31T01:56:03.539Z,99770.23
2022-12-31T02:01:08.817Z,99776.48
2022-12-31T02:06:29.148Z,99774.27
2022-12-31T02:11:36.687Z,99778.19
2022-12-31T02:16:53.721Z,99793.48
2022-12-31T02:22:24.108Z,99787.45
2022-12-31T02:27:58.076Z,99782.02
2022-12-31T02:33:24.564Z,99773.33
2022-12-31T02:38:55.616Z,99775.05
2022-12-31T02:43:58.283Z,99766.23
2022-12-31T02:49:16.253Z,99769.73
2022-12-31T02:54:29.234Z,99767.85
2022-12-31T02:59:59.710Z,99772.70
2022-12-31T03:05:03.877Z,99765.19
2022-12-31T03:10:07.868Z,99753.92
2022-12-31T03:15:30.996Z,99752.76
2022-12-31T03:21:01.460Z,99735.03
2022-12-31T03:26:12.510Z,99736.23
2022-12-31T03:31:16.444Z,99740.42
2022-12-31T03:36:19.344Z,99744.03
2022-12-31T03:41:22.090Z,99744.21
2022-12-31T03:46:24.837Z,99735.40
2022-12-31T03:51:27.512Z,99727.45
2022-12-31T03:56:30.170Z,99728.77
2022-12-31T04:01:32.993Z,99737.39
2022-12-31T04:06:35.805Z,99735.64
2022-12-31T04:11:38.465Z,99725.76
2022-12-31T04:16:41.151Z,99746.91
2022-12-31T04:21:43.895Z,99732.40
2022-12-31T04:26:46.681Z,99718.84
2022-12-31T04:31:49.593Z,99713.08
2022-12-31T04:36:52.799Z,99722.08
2022-12-31T04:41:55.726Z,99724.86
2022-12-31T04:46:58.514Z,99734.70
2022-12-31T04:52:01.309Z,99737.02
2022-12-31T04:57:03.979Z,99731.94
2022-12-31T05:02:06.964Z,99725.20
2022-12-31T05:07:09.919Z,99713.13
2022-12-31T05:12:12.644Z,99715.22
2022-12-31T05:17:15.409Z,99719.20
2022-12-31T05:22:30.124Z,99734.08
2022-12-31T05:27:32.999Z,99742.41
2022-12-31T05:32:35.761Z,99742.55
2022-12-31T05:37:38.989Z,99747.00
2022-12-31T05:42:41.701Z,99739.33
2022-12-31T05:47:44.985Z,99740.17
2022-12-31T05:52:47.932Z,99741.70
2022-12-31T05:57:50.729Z,99741.42
2022-12-31T06:02:53.673Z,99740.90
2022-12-31T06:07:56.534Z,99736.08
2022-12-31T06:12:59.341Z,99744.56
2022-12-31T06:18:02.013Z,99748.42
2022-12-31T06:23:05.570Z,99741.11
2022-12-31T06:28:13.231Z,99745.70
2022-12-31T06:33:20.784Z,99739.81
2022-12-31T06:38:24.935Z,99734.13
2022-12-31T06:43:27.620Z,99742.02
2022-12-31T06:48:30.822Z,99758.02
2022-12-31T06:53:33.921Z,99766.45
2022-12-31T06:58:37.439Z,99761.27
2022-12-31T07:03:49.096Z,99766.77
2022-12-31T07:09:03.719Z,99780.71
2022-12-31T07:14:32.652Z,99780.63
2022-12-31T07:20:11.267Z,99786.83
2022-12-31T07:25:17.000Z,99787.64
2022-12-31T07:30:24.283Z,99791.39
2022-12-31T07:35:41.717Z,99794.98
2022-12-31T07:41:32.338Z,99804.15
2022-12-31T07:46:51.161Z,99807.09
2022-12-31T07:51:54.457Z,99821.48
2022-12-31T07:56:57.850Z,99815.58
2022-12-31T08:02:14.856Z,99823.71
2022-12-31T08:07:31.719Z,99818.10
2022-12-31T08:12:35.665Z,99822.70
2022-12-31T08:17:38.536Z,99834.48
2022-12-31T08:22:41.168Z,99824.65
2022-12-31T08:27:49.715Z,99820.20
2022-12-31T08:33:17.181Z,99823.45
2022-12-31T08:38:34.832Z,99838.73
2022-12-31T08:44:15.289Z,99849.29
2022-12-31T08:49:18.735Z,99853.83
2022-12-31T08:54:22.115Z,99855.08
2022-12-31T08:59:36.878Z,99848.98
2022-12-31T09:05:17.753Z,99848.39
2022-12-31T09:10:39.341Z,99834.27
2022-12-31T09:15:56.291Z,99843.38
2022-12-31T09:20:59.000Z,99836.48
2022-12-31T09:26:10.928Z,99828.27
2022-12-31T09:31:17.750Z,99827.23
2022-12-31T09:36:49.767Z,99823.79
2022-12-31T09:42:23.795Z,99817.30
2022-12-31T09:48:04.069Z,99803.39
2022-12-31T09:53:25.212Z,99794.43
2022-12-31T09:58:49.219Z,99801.80
2022-12-31T10:04:20.223Z,99787.20
2022-12-31T10:09:31.067Z,99785.21
2022-12-31T10:14:58.882Z,99761.70
2022-12-31T10:20:16.919Z,99755.19
2022-12-31T10:25:38.369Z,99745.66
2022-12-31T10:31:10.735Z,99728.73
2022-12-31T10:36:45.757Z,99725.71
2022-12-31T10:42:10.313Z,99719.77
2022-12-31T10:47:22.023Z,99711.28
2022-12-31T10:52:42.342Z,99706.88
2022-12-31T10:58:10.433Z,99702.21
2022-12-31T11:03:40.682Z,99701.34
2022-12-31T11:09:17.678Z,99691.48
2022-12-31T11:14:29.853Z,99684.91
2022-12-31T11:19:32.990Z,99673.35
2022-12-31T11:24:58.954Z,99671.41
2022-12-31T11:30:11.279Z,99649.45
2022-12-31T11:35:21.112Z,99631.53
2022-12-31T11:40:54.390Z,99632.52
2022-12-31T11:46:06.423Z,99623.04
2022-12-31T11:51:09.141Z,99624.73
2022-12-31T11:56:20.520Z,99616.95
2022-12-31T12:01:44.395Z,99610.30
2022-12-31T12:06:47.483Z,99610.13
2022-12-31T12:12:00.304Z,99586.61
2022-12-31T12:17:08.194Z,99585.09
2022-12-31T12:22:13.980Z,99584.95
2022-12-31T12:27:27.248Z,99591.72
2022-12-31T12:32:29.916Z,99578.86
2022-12-31T12:37:35.482Z,99575.40
2022-12-31T12:42:47.647Z,99565.73
2022-12-31T12:48:03.116Z,99570.33
2022-12-31T12:53:11.783Z,99563.11
2022-12-31T12:58:26.409Z,99555.25
2022-12-31T13:04:14.636Z,99554.66
2022-12-31T13:09:35.606Z,99542.48
2022-12-31T13:15:02.724Z,99540.17
2022-12-31T13:20:18.913Z,99544.39
2022-12-31T13:25:35.341Z,99536.16
2022-12-31T13:30:52.614Z,99527.86
2022-12-31T13:36:05.431Z,99531.44
2022-12-31T13:41:16.860Z,99545.11
2022-12-31T13:46:44.171Z,99575.04
2022-12-31T13:51:50.506Z,99565.61
2022-12-31T13:56:54.518Z,99559.03
2022-12-31T14:02:32.942Z,99559.38
2022-12-31T14:07:45.756Z,99568.55
2022-12-31T14:13:05.622Z,99569.34
2022-12-31T14:18:32.678Z,99569.06
2022-12-31T14:23:51.146Z,99562.81
2022-12-31T14:29:06.258Z,99565.66
2022-12-31T14:34:24.912Z,99574.74
2022-12-31T14:39:36.313Z,99582.52
2022-12-31T14:44:47.037Z,99571.08
2022-12-31T14:50:01.888Z,99553.64
2022-12-31T14:55:15.046Z,99546.09
2022-12-31T15:00:39.301Z,99556.05
2022-12-31T15:05:54.934Z,99565.42
2022-12-31T15:11:18.219Z,99565.39
2022-12-31T15:16:40.054Z,99574.90
2022-12-31T15:21:54.956Z,99552.91
2022-12-31T15:27:03.880Z,99566.13
2022-12-31T15:32:16.516Z,99572.15
2022-12-31T15:37:32.934Z,99562.65
2022-12-31T15:43:02.589Z,99569.45
2022-12-31T15:48:23.813Z,99585.44
2022-12-31T15:53:32.234Z,99591.21
2022-12-31T15:58:36.790Z,99591.12
2022-12-31T16:03:45.099Z,99586.98
2022-12-31T16:08:49.720Z,99587.19
2022-12-31T16:13:54.914Z,99590.96
2022-12-31T16:18:59.473Z,99594.52
2022-12-31T16:24:21.822Z,99598.60
2022-12-31T16:29:25.047Z,99591.48
2022-12-31T16:34:28.608Z,99582.24
2022-12-31T16:39:37.962Z,99577.33
2022-12-31T16:44:41.225Z,99591.05
2022-12-31T16:49:48.631Z,99588.98
2022-12-31T16:54:52.646Z,99592.35
2022-12-31T17:00:00.223Z,99610.05
2022-12-31T17:05:03.046Z,99610.46
2022-12-31T17:10:08.847Z,99620.67
2022-12-31T17:15:19.674Z,99619.60
2022-12-31T17:20:27.199Z,99618.83
2022-12-31T17:25:36.678Z,99625.10
2022-12-31T17:30:40.479Z,99628.70
2022-12-31T17:35:44.943Z,99626.58
2022-12-31T17:40:53.607Z,99633.93
2022-12-31T17:45:56.521Z,99635.83
2022-12-31T17:51:00.961Z,99648.33
2022-12-31T17:56:07.430Z,99652.17
2022-12-31T18:01:13.934Z,99650.90
2022-12-31T18:06:17.398Z,99646.84
2022-12-31T18:11:23.266Z,99653.30
2022-12-31T18:16:26.047Z,99664.23
2022-12-31T18:21:34.633Z,99660.86
2022-12-31T18:26:37.361Z,99674.20
2022-12-31T18:31:41.885Z,99679.73
2022-12-31T18:36:44.707Z,99660.09
2022-12-31T18:41:49.632Z,99642.94
2022-12-31T18:46:52.490Z,99644.05
2022-12-31T18:51:55.969Z,99646.96
2022-12-31T18:56:58.990Z,99647.79
2022-12-31T19:02:01.891Z,99653.88
2022-12-31T19:07:04.729Z,99661.90
2022-12-31T19:12:12.770Z,99661.56
2022-12-31T19:17:15.517Z,99670.63
2022-12-31T19:22:18.322Z,99669.75
2022-12-31T19:27:21.010Z,99673.49
2022-12-31T19:32:23.682Z,99678.88
2022-12-31T19:37:26.356Z,99678.65
2022-12-31T19:42:29.053Z,99673.73
2022-12-31T19:47:31.749Z,99679.95
2022-12-31T19:52:34.410Z,99670.66
2022-12-31T19:57:37.204Z,99674.48
2022-12-31T20:02:40.836Z,99675.75
2022-12-31T20:07:43.729Z,99659.56
2022-12-31T20:12:46.423Z,99673.66
2022-12-31T20:17:49.100Z,99666.98
2022-12-31T20:22:51.832Z,99669.23
2022-12-31T20:27:55.753Z,99678.17
2022-12-31T20:32:58.454Z,99665.55
2022-12-31T20:38:01.362Z,99662.01
2022-12-31T20:43:04.541Z,99661.02
2022-12-31T20:48:07.369Z,99659.25
2022-12-31T20:53:10.075Z,99644.76
2022-12-31T20:58:12.775Z,99654.39
2022-12-31T21:03:53.546Z,99638.08
2022-12-31T21:08:41.595Z,99639.19
2022-12-31T21:13:44.315Z,99638.02
2022-12-31T21:18:47.018Z,99635.10
2022-12-31T21:23:50.222Z,99625.77
2022-12-31T21:28:53.760Z,99633.77
2022-12-31T21:33:56.762Z,99638.30
2022-12-31T21:38:59.549Z,99649.90
2022-12-31T21:44:02.470Z,99651.30
2022-12-31T21:49:05.179Z,99649.22
2022-12-31T21:54:28.127Z,99634.07
2022-12-31T22:00:09.053Z,99616.76
2022-12-31T22:05:18.641Z,99630.76
2022-12-31T22:10:26.128Z,99641.27
2022-12-31T22:15:28.850Z,99648.70
2022-12-31T22:20:31.594Z,99654.88
2022-12-31T22:25:35.435Z,99649.42
2022-12-31T22:30:38.147Z,99657.26
2022-12-31T22:35:40.999Z,99668.33
2022-12-31T22:40:43.819Z,99661.63
2022-12-31T22:45:46.530Z,99639.38
2022-12-31T22:50:57.229Z,99641.11
2022-12-31T22:56:00.294Z,99631.34
2022-12-31T23:01:17.902Z,99627.45
2022-12-31T23:06:23.841Z,99628.89
2022-12-31T23:11:26.505Z,99640.14
2022-12-31T23:16:48.641Z,99649.04
2022-12-31T23:22:10.955Z,99668.08
2022-12-31T23:27:13.960Z,99660.23
2022-12-31T23:32:17.702Z,99646.63
2022-12-31T23:37:20.372Z,99643.64
2022-12-31T23:42:23.182Z,99640.08
2022-12-31T23:47:26.188Z,99641.36
2022-12-31T23:52:28.991Z,99637.33
2022-12-31T23:57:31.899Z,99654.66
